sensor_id;sensor_type;location;lat;lon;timestamp;P1;durP1;ratioP1;P2;durP2;ratioP2
41263;SDS011;26998;48.714;9.414;2023-05-02T00:01:42;10.27;;;8.02;;
41263;SDS011;26998;48.714;9.414;2023-05-02T00:04:09;9.98;;;8.40;;
41263;SDS011;26998;48.714;9.414;2023-05-02T00:06:35;15.50;;;8.40;;
41263;SDS011;26998;48.714;9.414;2023-05-02T00:09:02;11.38;;;8.05;;
41263;SDS011;26998;48.714;9.414;2023-05-02T00:11:29;10.88;;;8.00;;
41263;SDS011;26998;48.714;9.414;2023-05-02T00:13:55;9.57;;;7.55;;
41263;SDS011;26998;48.714;9.414;2023-05-02T00:16:21;12.00;;;7.80;;
41263;SDS011;26998;48.714;9.414;2023-05-02T00:18:48;9.05;;;7.53;;
41263;SDS011;26998;48.714;9.414;2023-05-02T00:21:17;9.73;;;8.40;;
41263;SDS011;26998;48.714;9.414;2023-05-02T00:23:44;9.52;;;7.70;;
41263;SDS011;26998;48.714;9.414;2023-05-02T00:26:10;9.45;;;7.53;;
41263;SDS011;26998;48.714;9.414;2023-05-02T00:28:36;8.70;;;7.70;;
41263;SDS011;26998;48.714;9.414;2023-05-02T00:31:03;8.73;;;7.57;;
41263;SDS011;26998;48.714;9.414;2023-05-02T00:33:30;10.90;;;8.30;;
41263;SDS011;26998;48.714;9.414;2023-05-02T00:35:56;12.15;;;8.40;;
41263;SDS011;26998;48.714;9.414;2023-05-02T00:38:23;11.60;;;8.55;;
41263;SDS011;26998;48.714;9.414;2023-05-02T00:40:50;10.80;;;7.85;;
41263;SDS011;26998;48.714;9.414;2023-05-02T00:43:16;12.85;;;8.70;;
41263;SDS011;26998;48.714;9.414;2023-05-02T00:45:44;12.35;;;8.45;;
41263;SDS011;26998;48.714;9.414;2023-05-02T00:48:10;11.50;;;9.65;;
41263;SDS011;26998;48.714;9.414;2023-05-02T00:50:39;10.88;;;8.15;;
41263;SDS011;26998;48.714;9.414;2023-05-02T00:53:07;12.77;;;9.93;;
41263;SDS011;26998;48.714;9.414;2023-05-02T00:55:35;12.55;;;10.25;;
41263;SDS011;26998;48.714;9.414;2023-05-02T00:58:02;15.15;;;11.00;;
41263;SDS011;26998;48.714;9.414;2023-05-02T01:14:41;15.27;;;10.63;;
41263;SDS011;26998;48.714;9.414;2023-05-02T01:19:41;14.77;;;10.45;;
41263;SDS011;26998;48.714;9.414;2023-05-02T01:22:10;19.25;;;10.57;;
41263;SDS011;26998;48.714;9.414;2023-05-02T01:24:41;18.58;;;10.82;;
41263;SDS011;26998;48.714;9.414;2023-05-02T01:30:10;17.00;;;12.23;;
41263;SDS011;26998;48.714;9.414;2023-05-02T01:32:40;16.17;;;11.68;;
41263;SDS011;26998;48.714;9.414;2023-05-02T01:35:10;17.05;;;12.65;;
41263;SDS011;26998;48.714;9.414;2023-05-02T01:37:41;14.13;;;10.63;;
41263;SDS011;26998;48.714;9.414;2023-05-02T01:40:10;14.57;;;10.43;;
41263;SDS011;26998;48.714;9.414;2023-05-02T01:42:39;17.73;;;13.38;;
41263;SDS011;26998;48.714;9.414;2023-05-02T01:45:07;19.45;;;14.00;;
41263;SDS011;26998;48.714;9.414;2023-05-02T01:47:35;17.33;;;12.82;;
41263;SDS011;26998;48.714;9.414;2023-05-02T01:50:05;17.10;;;11.65;;
41263;SDS011;26998;48.714;9.414;2023-05-02T01:52:33;16.15;;;11.73;;
41263;SDS011;26998;48.714;9.414;2023-05-02T01:55:02;14.38;;;10.88;;
41263;SDS011;26998;48.714;9.414;2023-05-02T01:57:31;14.38;;;9.75;;
41263;SDS011;26998;48.714;9.414;2023-05-02T01:59:58;10.75;;;8.77;;
41263;SDS011;26998;48.714;9.414;2023-05-02T02:02:26;12.93;;;9.38;;
41263;SDS011;26998;48.714;9.414;2023-05-02T02:04:54;14.75;;;10.27;;
41263;SDS011;26998;48.714;9.414;2023-05-02T02:07:22;13.85;;;10.02;;
41263;SDS011;26998;48.714;9.414;2023-05-02T02:09:49;11.93;;;9.68;;
41263;SDS011;26998;48.714;9.414;2023-05-02T02:12:22;13.30;;;9.88;;
41263;SDS011;26998;48.714;9.414;2023-05-02T02:15:34;13.15;;;10.45;;
41263;SDS011;26998;48.714;9.414;2023-05-02T02:18:00;12.95;;;9.63;;
41263;SDS011;26998;48.714;9.414;2023-05-02T02:20:30;10.10;;;8.25;;
41263;SDS011;26998;48.714;9.414;2023-05-02T02:22:59;10.63;;;8.63;;
41263;SDS011;26998;48.714;9.414;2023-05-02T02:25:28;10.13;;;8.80;;
41263;SDS011;26998;48.714;9.414;2023-05-02T02:27:55;12.35;;;9.27;;
41263;SDS011;26998;48.714;9.414;2023-05-02T02:30:22;10.52;;;8.52;;
41263;SDS011;26998;48.714;9.414;2023-05-02T02:32:48;11.98;;;8.60;;
41263;SDS011;26998;48.714;9.414;2023-05-02T02:35:15;10.90;;;8.90;;
41263;SDS011;26998;48.714;9.414;2023-05-02T02:40:27;15.98;;;9.75;;
41263;SDS011;26998;48.714;9.414;2023-05-02T02:48:55;11.15;;;8.48;;
41263;SDS011;26998;48.714;9.414;2023-05-02T02:52:13;14.32;;;9.10;;
41263;SDS011;26998;48.714;9.414;2023-05-02T02:54:23;14.40;;;8.77;;
41263;SDS011;26998;48.714;9.414;2023-05-02T02:57:00;16.45;;;10.75;;
41263;SDS011;26998;48.714;9.414;2023-05-02T02:59:33;17.00;;;10.35;;
41263;SDS011;26998;48.714;9.414;2023-05-02T03:02:11;11.35;;;8.77;;
41263;SDS011;26998;48.714;9.414;2023-05-02T03:04:42;14.77;;;9.88;;
41263;SDS011;26998;48.714;9.414;2023-05-02T03:07:11;17.02;;;10.27;;
41263;SDS011;26998;48.714;9.414;2023-05-02T03:09:41;11.20;;;8.50;;
41263;SDS011;26998;48.714;9.414;2023-05-02T03:12:12;14.77;;;9.45;;
41263;SDS011;26998;48.714;9.414;2023-05-02T03:14:39;18.05;;;10.48;;
41263;SDS011;26998;48.714;9.414;2023-05-02T03:17:06;15.80;;;10.05;;
41263;SDS011;26998;48.714;9.414;2023-05-02T03:19:33;15.98;;;9.55;;
41263;SDS011;26998;48.714;9.414;2023-05-02T03:21:59;17.92;;;9.90;;
41263;SDS011;26998;48.714;9.414;2023-05-02T03:24:26;15.10;;;9.27;;
41263;SDS011;26998;48.714;9.414;2023-05-02T03:26:55;13.48;;;8.90;;
41263;SDS011;26998;48.714;9.414;2023-05-02T03:29:23;13.23;;;8.77;;
41263;SDS011;26998;48.714;9.414;2023-05-02T03:31:50;14.00;;;9.25;;
41263;SDS011;26998;48.714;9.414;2023-05-02T03:34:16;12.70;;;8.25;;
41263;SDS011;26998;48.714;9.414;2023-05-02T03:36:43;11.90;;;8.38;;
41263;SDS011;26998;48.714;9.414;2023-05-02T03:39:09;13.35;;;8.52;;
41263;SDS011;26998;48.714;9.414;2023-05-02T03:41:36;13.52;;;9.48;;
41263;SDS011;26998;48.714;9.414;2023-05-02T03:44:02;17.10;;;9.57;;
41263;SDS011;26998;48.714;9.414;2023-05-02T03:46:29;12.68;;;8.90;;
41263;SDS011;26998;48.714;9.414;2023-05-02T03:48:58;14.40;;;9.07;;
41263;SDS011;26998;48.714;9.414;2023-05-02T03:51:25;13.15;;;9.80;;
41263;SDS011;26998;48.714;9.414;2023-05-02T03:53:52;18.27;;;10.27;;
41263;SDS011;26998;48.714;9.414;2023-05-02T03:56:18;13.00;;;9.60;;
41263;SDS011;26998;48.714;9.414;2023-05-02T03:58:46;16.58;;;9.98;;
41263;SDS011;26998;48.714;9.414;2023-05-02T04:01:14;12.75;;;9.45;;
41263;SDS011;26998;48.714;9.414;2023-05-02T04:03:41;15.98;;;9.93;;
41263;SDS011;26998;48.714;9.414;2023-05-02T04:06:08;11.60;;;9.27;;
41263;SDS011;26998;48.714;9.414;2023-05-02T04:08:35;16.27;;;10.52;;
41263;SDS011;26998;48.714;9.414;2023-05-02T04:11:01;15.75;;;10.15;;
41263;SDS011;26998;48.714;9.414;2023-05-02T04:13:28;11.50;;;8.90;;
41263;SDS011;26998;48.714;9.414;2023-05-02T04:15:55;13.88;;;9.77;;
41263;SDS011;26998;48.714;9.414;2023-05-02T04:18:21;12.80;;;10.07;;
41263;SDS011;26998;48.714;9.414;2023-05-02T04:20:48;17.13;;;11.15;;
41263;SDS011;26998;48.714;9.414;2023-05-02T04:23:15;16.55;;;10.63;;
41263;SDS011;26998;48.714;9.414;2023-05-02T04:25:49;14.73;;;10.68;;
41263;SDS011;26998;48.714;9.414;2023-05-02T04:28:20;12.48;;;10.30;;
41263;SDS011;26998;48.714;9.414;2023-05-02T04:30:47;16.33;;;10.77;;
41263;SDS011;26998;48.714;9.414;2023-05-02T04:35:44;14.85;;;9.93;;
41263;SDS011;26998;48.714;9.414;2023-05-02T04:38:11;15.88;;;10.10;;
41263;SDS011;26998;48.714;9.414;2023-05-02T04:40:37;15.57;;;10.93;;
41263;SDS011;26998;48.714;9.414;2023-05-02T04:43:04;14.32;;;10.93;;
41263;SDS011;26998;48.714;9.414;2023-05-02T04:45:30;15.05;;;10.85;;
41263;SDS011;26998;48.714;9.414;2023-05-02T04:47:57;13.52;;;10.38;;
41263;SDS011;26998;48.714;9.414;2023-05-02T04:50:23;12.90;;;10.20;;
41263;SDS011;26998;48.714;9.414;2023-05-02T04:52:50;14.32;;;10.23;;
41263;SDS011;26998;48.714;9.414;2023-05-02T04:55:16;13.20;;;9.93;;
41263;SDS011;26998;48.714;9.414;2023-05-02T04:57:43;13.65;;;10.32;;
41263;SDS011;26998;48.714;9.414;2023-05-02T05:00:10;15.70;;;11.27;;
41263;SDS011;26998;48.714;9.414;2023-05-02T05:02:37;16.50;;;10.93;;
41263;SDS011;26998;48.714;9.414;2023-05-02T05:05:04;14.75;;;11.15;;
41263;SDS011;26998;48.714;9.414;2023-05-02T05:07:31;16.67;;;12.27;;
41263;SDS011;26998;48.714;9.414;2023-05-02T05:09:58;14.85;;;11.95;;
41263;SDS011;26998;48.714;9.414;2023-05-02T05:12:25;18.08;;;11.60;;
41263;SDS011;26998;48.714;9.414;2023-05-02T05:14:51;13.48;;;11.15;;
41263;SDS011;26998;48.714;9.414;2023-05-02T05:17:20;16.48;;;12.75;;
41263;SDS011;26998;48.714;9.414;2023-05-02T05:19:47;15.45;;;12.98;;
41263;SDS011;26998;48.714;9.414;2023-05-02T05:22:14;14.77;;;11.80;;
41263;SDS011;26998;48.714;9.414;2023-05-02T05:24:40;12.77;;;10.57;;
41263;SDS011;26998;48.714;9.414;2023-05-02T05:27:07;13.55;;;10.93;;
41263;SDS011;26998;48.714;9.414;2023-05-02T05:29:33;11.48;;;9.75;;
41263;SDS011;26998;48.714;9.414;2023-05-02T05:32:00;12.68;;;10.48;;
41263;SDS011;26998;48.714;9.414;2023-05-02T05:34:27;10.60;;;9.30;;
41263;SDS011;26998;48.714;9.414;2023-05-02T05:36:56;11.27;;;8.90;;
41263;SDS011;26998;48.714;9.414;2023-05-02T05:39:24;10.73;;;9.57;;
41263;SDS011;26998;48.714;9.414;2023-05-02T05:41:50;9.05;;;8.13;;
41263;SDS011;26998;48.714;9.414;2023-05-02T05:44:17;8.23;;;7.43;;
41263;SDS011;26998;48.714;9.414;2023-05-02T05:46:44;8.63;;;7.63;;
41263;SDS011;26998;48.714;9.414;2023-05-02T05:49:10;10.82;;;9.20;;
41263;SDS011;26998;48.714;9.414;2023-05-02T05:51:37;10.27;;;8.63;;
41263;SDS011;26998;48.714;9.414;2023-05-02T05:54:06;11.25;;;8.13;;
41263;SDS011;26998;48.714;9.414;2023-05-02T05:56:32;10.30;;;8.45;;
41263;SDS011;26998;48.714;9.414;2023-05-02T05:58:59;10.15;;;8.93;;
41263;SDS011;26998;48.714;9.414;2023-05-02T06:01:25;10.02;;;8.52;;
41263;SDS011;26998;48.714;9.414;2023-05-02T06:03:52;8.25;;;7.43;;
41263;SDS011;26998;48.714;9.414;2023-05-02T06:06:18;11.38;;;9.00;;
41263;SDS011;26998;48.714;9.414;2023-05-02T06:08:45;8.85;;;7.95;;
41263;SDS011;26998;48.714;9.414;2023-05-02T06:11:11;15.10;;;9.35;;
41263;SDS011;26998;48.714;9.414;2023-05-02T06:13:38;11.40;;;8.80;;
41263;SDS011;26998;48.714;9.414;2023-05-02T06:16:04;11.60;;;10.07;;
41263;SDS011;26998;48.714;9.414;2023-05-02T06:18:31;14.68;;;11.93;;
41263;SDS011;26998;48.714;9.414;2023-05-02T06:21:02;15.50;;;11.93;;
41263;SDS011;26998;48.714;9.414;2023-05-02T06:23:29;13.32;;;10.88;;
41263;SDS011;26998;48.714;9.414;2023-05-02T06:25:59;13.02;;;10.07;;
41263;SDS011;26998;48.714;9.414;2023-05-02T06:28:28;14.45;;;10.80;;
41263;SDS011;26998;48.714;9.414;2023-05-02T06:33:28;16.02;;;11.30;;
41263;SDS011;26998;48.714;9.414;2023-05-02T06:35:55;17.98;;;11.48;;
41263;SDS011;26998;48.714;9.414;2023-05-02T06:38:25;15.20;;;10.85;;
41263;SDS011;26998;48.714;9.414;2023-05-02T06:40:52;14.55;;;10.32;;
41263;SDS011;26998;48.714;9.414;2023-05-02T06:43:19;14.18;;;9.75;;
41263;SDS011;26998;48.714;9.414;2023-05-02T06:45:45;12.77;;;10.25;;
41263;SDS011;26998;48.714;9.414;2023-05-02T06:48:12;11.75;;;9.68;;
41263;SDS011;26998;48.714;9.414;2023-05-02T06:50:38;10.43;;;9.25;;
41263;SDS011;26998;48.714;9.414;2023-05-02T06:53:05;13.80;;;9.93;;
41263;SDS011;26998;48.714;9.414;2023-05-02T06:55:31;15.45;;;10.75;;
41263;SDS011;26998;48.714;9.414;2023-05-02T06:57:58;11.90;;;10.25;;
41263;SDS011;26998;48.714;9.414;2023-05-02T07:00:26;13.73;;;10.30;;
41263;SDS011;26998;48.714;9.414;2023-05-02T07:02:52;12.93;;;10.35;;
41263;SDS011;26998;48.714;9.414;2023-05-02T07:05:19;14.30;;;10.13;;
41263;SDS011;26998;48.714;9.414;2023-05-02T07:07:45;10.07;;;8.63;;
41263;SDS011;26998;48.714;9.414;2023-05-02T07:10:13;11.20;;;8.60;;
41263;SDS011;26998;48.714;9.414;2023-05-02T07:12:39;12.80;;;9.98;;
41263;SDS011;26998;48.714;9.414;2023-05-02T07:15:06;10.40;;;9.30;;
41263;SDS011;26998;48.714;9.414;2023-05-02T07:17:33;10.68;;;9.00;;
41263;SDS011;26998;48.714;9.414;2023-05-02T07:20:00;11.88;;;9.73;;
41263;SDS011;26998;48.714;9.414;2023-05-02T07:22:26;11.13;;;9.27;;
41263;SDS011;26998;48.714;9.414;2023-05-02T07:24:56;12.23;;;8.68;;
41263;SDS011;26998;48.714;9.414;2023-05-02T07:27:24;9.73;;;7.82;;
41263;SDS011;26998;48.714;9.414;2023-05-02T07:29:50;10.27;;;7.75;;
41263;SDS011;26998;48.714;9.414;2023-05-02T07:32:18;10.18;;;8.30;;
41263;SDS011;26998;48.714;9.414;2023-05-02T07:34:46;10.57;;;8.60;;
41263;SDS011;26998;48.714;9.414;2023-05-02T07:37:12;9.00;;;8.10;;
41263;SDS011;26998;48.714;9.414;2023-05-02T07:39:39;13.68;;;10.88;;
41263;SDS011;26998;48.714;9.414;2023-05-02T07:42:06;12.30;;;10.32;;
41263;SDS011;26998;48.714;9.414;2023-05-02T07:44:32;14.07;;;9.93;;
41263;SDS011;26998;48.714;9.414;2023-05-02T07:46:59;12.85;;;11.00;;
41263;SDS011;26998;48.714;9.414;2023-05-02T07:49:26;16.33;;;12.10;;
41263;SDS011;26998;48.714;9.414;2023-05-02T07:51:52;13.73;;;11.65;;
41263;SDS011;26998;48.714;9.414;2023-05-02T07:54:19;13.40;;;11.43;;
41263;SDS011;26998;48.714;9.414;2023-05-02T07:56:47;18.17;;;13.85;;
41263;SDS011;26998;48.714;9.414;2023-05-02T07:59:13;16.52;;;12.80;;
41263;SDS011;26998;48.714;9.414;2023-05-02T08:01:40;17.17;;;13.10;;
41263;SDS011;26998;48.714;9.414;2023-05-02T08:04:07;17.05;;;11.63;;
41263;SDS011;26998;48.714;9.414;2023-05-02T08:06:34;14.07;;;12.15;;
41263;SDS011;26998;48.714;9.414;2023-05-02T08:09:01;15.68;;;11.32;;
41263;SDS011;26998;48.714;9.414;2023-05-02T08:11:27;19.88;;;13.00;;
41263;SDS011;26998;48.714;9.414;2023-05-02T08:13:54;15.25;;;13.13;;
41263;SDS011;26998;48.714;9.414;2023-05-02T08:16:21;17.10;;;12.68;;
41263;SDS011;26998;48.714;9.414;2023-05-02T08:18:48;14.60;;;11.60;;
41263;SDS011;26998;48.714;9.414;2023-05-02T08:21:14;16.52;;;13.35;;
41263;SDS011;26998;48.714;9.414;2023-05-02T08:23:41;16.35;;;13.48;;
41263;SDS011;26998;48.714;9.414;2023-05-02T08:26:08;18.20;;;14.02;;
41263;SDS011;26998;48.714;9.414;2023-05-02T08:28:34;16.13;;;14.05;;
41263;SDS011;26998;48.714;9.414;2023-05-02T08:31:01;15.43;;;13.80;;
41263;SDS011;26998;48.714;9.414;2023-05-02T08:33:28;19.05;;;15.15;;
41263;SDS011;26998;48.714;9.414;2023-05-02T08:35:55;22.40;;;14.45;;
41263;SDS011;26998;48.714;9.414;2023-05-02T08:38:22;18.67;;;14.80;;
41263;SDS011;26998;48.714;9.414;2023-05-02T08:40:48;14.52;;;12.70;;
41263;SDS011;26998;48.714;9.414;2023-05-02T08:43:15;18.63;;;15.88;;
41263;SDS011;26998;48.714;9.414;2023-05-02T08:45:42;16.85;;;14.55;;
41263;SDS011;26998;48.714;9.414;2023-05-02T08:48:10;26.70;;;16.27;;
41263;SDS011;26998;48.714;9.414;2023-05-02T08:50:39;22.98;;;16.80;;
41263;SDS011;26998;48.714;9.414;2023-05-02T08:53:10;23.63;;;16.60;;
41263;SDS011;26998;48.714;9.414;2023-05-02T08:55:38;20.13;;;16.63;;
41263;SDS011;26998;48.714;9.414;2023-05-02T08:58:06;27.35;;;17.23;;
41263;SDS011;26998;48.714;9.414;2023-05-02T09:00:37;20.45;;;17.27;;
41263;SDS011;26998;48.714;9.414;2023-05-02T09:03:15;22.27;;;19.13;;
41263;SDS011;26998;48.714;9.414;2023-05-02T09:05:51;25.52;;;19.65;;
41263;SDS011;26998;48.714;9.414;2023-05-02T09:08:22;22.25;;;18.15;;
41263;SDS011;26998;48.714;9.414;2023-05-02T09:10:49;28.02;;;20.02;;
41263;SDS011;26998;48.714;9.414;2023-05-02T09:13:29;23.40;;;20.08;;
41263;SDS011;26998;48.714;9.414;2023-05-02T09:15:59;26.45;;;17.85;;
41263;SDS011;26998;48.714;9.414;2023-05-02T09:18:30;19.60;;;16.60;;
41263;SDS011;26998;48.714;9.414;2023-05-02T09:20:58;20.33;;;18.08;;
41263;SDS011;26998;48.714;9.414;2023-05-02T09:23:39;27.23;;;19.13;;
41263;SDS011;26998;48.714;9.414;2023-05-02T09:26:15;20.73;;;16.52;;
41263;SDS011;26998;48.714;9.414;2023-05-02T09:28:50;21.83;;;17.88;;
41263;SDS011;26998;48.714;9.414;2023-05-02T09:31:21;19.58;;;16.02;;
41263;SDS011;26998;48.714;9.414;2023-05-02T09:34:13;18.73;;;14.75;;
41263;SDS011;26998;48.714;9.414;2023-05-02T09:39:12;18.77;;;16.30;;
41263;SDS011;26998;48.714;9.414;2023-05-02T09:41:41;19.80;;;16.15;;
41263;SDS011;26998;48.714;9.414;2023-05-02T09:44:10;20.73;;;17.08;;
41263;SDS011;26998;48.714;9.414;2023-05-02T09:46:38;19.65;;;16.00;;
41263;SDS011;26998;48.714;9.414;2023-05-02T09:49:06;21.80;;;17.27;;
41263;SDS011;26998;48.714;9.414;2023-05-02T09:51:32;16.55;;;14.75;;
41263;SDS011;26998;48.714;9.414;2023-05-02T09:53:59;18.67;;;16.20;;
41263;SDS011;26998;48.714;9.414;2023-05-02T09:56:26;19.73;;;17.05;;
41263;SDS011;26998;48.714;9.414;2023-05-02T10:02:01;19.63;;;17.42;;
41263;SDS011;26998;48.714;9.414;2023-05-02T10:04:30;22.25;;;19.45;;
41263;SDS011;26998;48.714;9.414;2023-05-02T10:07:00;22.00;;;17.98;;
41263;SDS011;26998;48.714;9.414;2023-05-02T10:09:28;18.27;;;15.32;;
41263;SDS011;26998;48.714;9.414;2023-05-02T10:11:55;23.65;;;18.23;;
41263;SDS011;26998;48.714;9.414;2023-05-02T10:14:23;20.08;;;17.60;;
41263;SDS011;26998;48.714;9.414;2023-05-02T10:16:59;19.48;;;17.38;;
41263;SDS011;26998;48.714;9.414;2023-05-02T10:19:32;19.95;;;14.50;;
41263;SDS011;26998;48.714;9.414;2023-05-02T10:22:06;17.73;;;15.23;;
41263;SDS011;26998;48.714;9.414;2023-05-02T10:24:33;18.90;;;16.00;;
41263;SDS011;26998;48.714;9.414;2023-05-02T10:27:00;17.55;;;15.20;;
41263;SDS011;26998;48.714;9.414;2023-05-02T10:29:30;17.53;;;15.47;;
41263;SDS011;26998;48.714;9.414;2023-05-02T10:31:57;17.92;;;15.13;;
41263;SDS011;26998;48.714;9.414;2023-05-02T10:34:26;18.98;;;14.50;;
41263;SDS011;26998;48.714;9.414;2023-05-02T10:36:53;17.45;;;15.20;;
41263;SDS011;26998;48.714;9.414;2023-05-02T10:39:20;20.85;;;16.85;;
41263;SDS011;26998;48.714;9.414;2023-05-02T10:41:47;21.48;;;16.73;;
41263;SDS011;26998;48.714;9.414;2023-05-02T10:44:14;15.48;;;13.88;;
41263;SDS011;26998;48.714;9.414;2023-05-02T10:46:40;16.63;;;13.43;;
41263;SDS011;26998;48.714;9.414;2023-05-02T10:49:07;15.68;;;14.07;;
41263;SDS011;26998;48.714;9.414;2023-05-02T10:51:38;14.95;;;11.35;;
41263;SDS011;26998;48.714;9.414;2023-05-02T10:54:21;14.23;;;11.95;;
41263;SDS011;26998;48.714;9.414;2023-05-02T10:59:25;23.05;;;17.25;;
41263;SDS011;26998;48.714;9.414;2023-05-02T11:01:53;18.08;;;14.88;;
41263;SDS011;26998;48.714;9.414;2023-05-02T11:04:20;18.67;;;14.48;;
41263;SDS011;26998;48.714;9.414;2023-05-02T11:11:49;19.10;;;13.77;;
41263;SDS011;26998;48.714;9.414;2023-05-02T11:19:29;22.02;;;14.18;;
41263;SDS011;26998;48.714;9.414;2023-05-02T11:24:44;16.30;;;12.85;;
41263;SDS011;26998;48.714;9.414;2023-05-02T11:29:57;18.98;;;15.70;;
41263;SDS011;26998;48.714;9.414;2023-05-02T11:35:14;15.32;;;13.32;;
41263;SDS011;26998;48.714;9.414;2023-05-02T11:37:43;15.68;;;13.65;;
41263;SDS011;26998;48.714;9.414;2023-05-02T11:40:18;15.57;;;13.35;;
41263;SDS011;26998;48.714;9.414;2023-05-02T11:42:45;14.73;;;13.02;;
41263;SDS011;26998;48.714;9.414;2023-05-02T11:45:13;19.30;;;15.63;;
41263;SDS011;26998;48.714;9.414;2023-05-02T11:47:40;16.88;;;14.05;;
41263;SDS011;26998;48.714;9.414;2023-05-02T11:50:08;17.10;;;14.48;;
41263;SDS011;26998;48.714;9.414;2023-05-02T11:52:38;16.42;;;13.85;;
41263;SDS011;26998;48.714;9.414;2023-05-02T11:55:06;16.13;;;13.65;;
41263;SDS011;26998;48.714;9.414;2023-05-02T11:57:37;17.42;;;12.77;;
41263;SDS011;26998;48.714;9.414;2023-05-02T12:00:04;15.75;;;12.38;;
41263;SDS011;26998;48.714;9.414;2023-05-02T12:02:40;14.23;;;12.23;;
41263;SDS011;26998;48.714;9.414;2023-05-02T12:05:12;14.65;;;12.27;;
41263;SDS011;26998;48.714;9.414;2023-05-02T12:07:43;17.58;;;14.00;;
41263;SDS011;26998;48.714;9.414;2023-05-02T12:10:11;15.77;;;13.50;;
41263;SDS011;26998;48.714;9.414;2023-05-02T12:12:39;14.27;;;12.77;;
41263;SDS011;26998;48.714;9.414;2023-05-02T12:15:07;17.23;;;14.00;;
41263;SDS011;26998;48.714;9.414;2023-05-02T12:17:38;16.25;;;13.30;;
41263;SDS011;26998;48.714;9.414;2023-05-02T12:20:08;16.40;;;14.07;;
41263;SDS011;26998;48.714;9.414;2023-05-02T12:22:36;20.17;;;16.48;;
41263;SDS011;26998;48.714;9.414;2023-05-02T12:25:03;16.23;;;13.93;;
41263;SDS011;26998;48.714;9.414;2023-05-02T12:27:31;14.30;;;12.60;;
41263;SDS011;26998;48.714;9.414;2023-05-02T12:29:57;15.98;;;14.25;;
41263;SDS011;26998;48.714;9.414;2023-05-02T12:32:28;18.25;;;15.75;;
41263;SDS011;26998;48.714;9.414;2023-05-02T12:34:56;17.25;;;15.05;;
41263;SDS011;26998;48.714;9.414;2023-05-02T12:37:24;18.13;;;15.10;;
41263;SDS011;26998;48.714;9.414;2023-05-02T12:39:52;17.63;;;14.50;;
41263;SDS011;26998;48.714;9.414;2023-05-02T12:42:20;14.48;;;12.23;;
41263;SDS011;26998;48.714;9.414;2023-05-02T12:44:48;15.68;;;12.10;;
41263;SDS011;26998;48.714;9.414;2023-05-02T12:47:16;16.52;;;14.10;;
41263;SDS011;26998;48.714;9.414;2023-05-02T12:55:17;13.35;;;11.88;;
41263;SDS011;26998;48.714;9.414;2023-05-02T12:57:45;14.45;;;11.35;;
41263;SDS011;26998;48.714;9.414;2023-05-02T13:00:12;15.68;;;13.20;;
41263;SDS011;26998;48.714;9.414;2023-05-02T13:02:41;19.85;;;17.30;;
41263;SDS011;26998;48.714;9.414;2023-05-02T13:05:14;25.35;;;18.98;;
41263;SDS011;26998;48.714;9.414;2023-05-02T13:07:42;21.92;;;18.40;;
41263;SDS011;26998;48.714;9.414;2023-05-02T13:10:08;21.33;;;18.38;;
41263;SDS011;26998;48.714;9.414;2023-05-02T13:12:35;27.65;;;20.50;;
41263;SDS011;26998;48.714;9.414;2023-05-02T13:15:02;26.17;;;18.98;;
41263;SDS011;26998;48.714;9.414;2023-05-02T13:17:29;21.15;;;17.08;;
41263;SDS011;26998;48.714;9.414;2023-05-02T13:19:56;25.85;;;19.20;;
41263;SDS011;26998;48.714;9.414;2023-05-02T13:22:27;26.42;;;19.20;;
41263;SDS011;26998;48.714;9.414;2023-05-02T13:24:54;24.52;;;18.48;;
41263;SDS011;26998;48.714;9.414;2023-05-02T13:27:23;30.25;;;21.20;;
41263;SDS011;26998;48.714;9.414;2023-05-02T13:29:51;25.65;;;19.45;;
41263;SDS011;26998;48.714;9.414;2023-05-02T13:32:18;26.80;;;19.13;;
41263;SDS011;26998;48.714;9.414;2023-05-02T13:34:44;24.20;;;18.38;;
41263;SDS011;26998;48.714;9.414;2023-05-02T13:37:11;25.48;;;18.42;;
41263;SDS011;26998;48.714;9.414;2023-05-02T13:39:37;20.75;;;17.20;;
41263;SDS011;26998;48.714;9.414;2023-05-02T13:42:04;24.50;;;18.95;;
41263;SDS011;26998;48.714;9.414;2023-05-02T13:44:31;24.00;;;18.33;;
41263;SDS011;26998;48.714;9.414;2023-05-02T13:46:58;23.80;;;18.00;;
41263;SDS011;26998;48.714;9.414;2023-05-02T13:49:24;22.75;;;17.60;;
41263;SDS011;26998;48.714;9.414;2023-05-02T13:51:51;24.52;;;18.05;;
41263;SDS011;26998;48.714;9.414;2023-05-02T13:54:18;22.00;;;17.17;;
41263;SDS011;26998;48.714;9.414;2023-05-02T13:56:45;19.85;;;15.40;;
41263;SDS011;26998;48.714;9.414;2023-05-02T13:59:11;21.20;;;15.05;;
41263;SDS011;26998;48.714;9.414;2023-05-02T14:01:38;17.75;;;14.52;;
41263;SDS011;26998;48.714;9.414;2023-05-02T14:04:05;20.40;;;16.25;;
41263;SDS011;26998;48.714;9.414;2023-05-02T14:06:33;23.67;;;15.90;;
41263;SDS011;26998;48.714;9.414;2023-05-02T14:09:00;19.50;;;15.00;;
41263;SDS011;26998;48.714;9.414;2023-05-02T14:11:27;18.35;;;15.07;;
41263;SDS011;26998;48.714;9.414;2023-05-02T14:13:53;23.05;;;15.50;;
41263;SDS011;26998;48.714;9.414;2023-05-02T14:16:20;17.73;;;14.18;;
41263;SDS011;26998;48.714;9.414;2023-05-02T14:18:46;18.42;;;13.45;;
41263;SDS011;26998;48.714;9.414;2023-05-02T14:21:13;16.83;;;13.90;;
41263;SDS011;26998;48.714;9.414;2023-05-02T14:23:39;17.15;;;13.07;;
41263;SDS011;26998;48.714;9.414;2023-05-02T14:26:06;18.02;;;13.65;;
41263;SDS011;26998;48.714;9.414;2023-05-02T14:28:32;20.20;;;13.95;;
41263;SDS011;26998;48.714;9.414;2023-05-02T14:30:59;17.73;;;14.07;;
41263;SDS011;26998;48.714;9.414;2023-05-02T14:33:26;18.17;;;15.05;;
41263;SDS011;26998;48.714;9.414;2023-05-02T14:35:52;19.00;;;15.60;;
41263;SDS011;26998;48.714;9.414;2023-05-02T14:38:19;16.05;;;13.77;;
41263;SDS011;26998;48.714;9.414;2023-05-02T14:40:45;14.63;;;12.68;;
41263;SDS011;26998;48.714;9.414;2023-05-02T14:43:12;15.02;;;13.10;;
41263;SDS011;26998;48.714;9.414;2023-05-02T14:45:39;20.65;;;15.77;;
41263;SDS011;26998;48.714;9.414;2023-05-02T14:48:05;16.55;;;13.82;;
41263;SDS011;26998;48.714;9.414;2023-05-02T14:50:32;19.05;;;15.02;;
41263;SDS011;26998;48.714;9.414;2023-05-02T14:52:58;17.63;;;14.90;;
41263;SDS011;26998;48.714;9.414;2023-05-02T14:55:25;14.27;;;12.60;;
41263;SDS011;26998;48.714;9.414;2023-05-02T14:57:51;14.88;;;11.68;;
41263;SDS011;26998;48.714;9.414;2023-05-02T15:00:18;11.68;;;10.20;;
41263;SDS011;26998;48.714;9.414;2023-05-02T15:02:45;14.63;;;10.63;;
41263;SDS011;26998;48.714;9.414;2023-05-02T15:05:12;13.30;;;10.02;;
41263;SDS011;26998;48.714;9.414;2023-05-02T15:07:39;13.18;;;9.98;;
41263;SDS011;26998;48.714;9.414;2023-05-02T15:10:05;13.43;;;10.27;;
41263;SDS011;26998;48.714;9.414;2023-05-02T15:12:32;12.63;;;9.65;;
41263;SDS011;26998;48.714;9.414;2023-05-02T15:14:59;13.38;;;10.27;;
41263;SDS011;26998;48.714;9.414;2023-05-02T15:17:26;13.75;;;9.60;;
41263;SDS011;26998;48.714;9.414;2023-05-02T15:19:52;12.70;;;8.65;;
41263;SDS011;26998;48.714;9.414;2023-05-02T15:22:22;11.82;;;8.38;;
41263;SDS011;26998;48.714;9.414;2023-05-02T15:24:48;10.90;;;8.68;;
41263;SDS011;26998;48.714;9.414;2023-05-02T15:27:15;9.32;;;8.38;;
41263;SDS011;26998;48.714;9.414;2023-05-02T15:29:41;10.98;;;9.40;;
41263;SDS011;26998;48.714;9.414;2023-05-02T15:32:08;10.35;;;8.20;;
41263;SDS011;26998;48.714;9.414;2023-05-02T15:34:34;11.98;;;9.40;;
41263;SDS011;26998;48.714;9.414;2023-05-02T15:37:01;14.07;;;10.75;;